EWG249 LOWI-LOWS

Flight info

Callsign EWG249
Flight time 0h 24m
Altitude 13000
Route RTT DCT RASTA RASTA2R
Aircraft A320/M-SDE3FGHIRWY/LB1

Departure

Time 2026-05-04 18:28
Airport Innsbruck Airport (LOWI)

Arrival

Time 2026-05-04 18:52
Airport Salzburg Airport (LOWS)
Time Latitude Longitude Altitude Speed Heading
2026-05-04 17:47 47.25803 11.34868 1899 ft 0 kts 168°
2026-05-04 18:15 47.25820 11.34862 1899 ft 3 kts 160°
2026-05-04 18:15 47.25850 11.34830 1889 ft 3 kts 103°
2026-05-04 18:15 47.25851 11.34813 1899 ft 1 kts 81°
2026-05-04 18:16 47.25851 11.34808 1899 ft 0 kts 81°
2026-05-04 18:20 47.25851 11.34812 1892 ft 1 kts 81°
2026-05-04 18:20 47.25862 11.34903 1890 ft 20 kts 79°
2026-05-04 18:20 47.25888 11.35159 1899 ft 26 kts 81°
2026-05-04 18:21 47.25933 11.35291 1899 ft 10 kts 352°
2026-05-04 18:21 47.25964 11.35281 1899 ft 0 kts 349°
2026-05-04 18:26 47.26019 11.35266 1899 ft 21 kts 349°
2026-05-04 18:26 47.26115 11.35296 1899 ft 14 kts 67°
2026-05-04 18:26 47.26138 11.35481 1891 ft 20 kts 81°
2026-05-04 18:26 47.26118 11.35647 1899 ft 13 kts 104°
2026-05-04 18:27 47.26153 11.35652 1896 ft 7 kts 278°
2026-05-04 18:27 47.26148 11.35576 1902 ft 12 kts 261°
2026-05-04 18:27 47.26090 11.35059 1901 ft 92 kts 260°
2026-05-04 18:27 47.25951 11.33794 1900 ft 155 kts 261°
2026-05-04 18:28 47.25792 11.32042 2224 ft 175 kts 265°
2026-05-04 18:28 47.25821 11.30285 3006 ft 172 kts 272°
2026-05-04 18:28 47.25950 11.28548 3810 ft 169 kts 272°
2026-05-04 18:28 47.26068 11.26795 4420 ft 179 kts 268°
2026-05-04 18:29 47.25773 11.25021 4988 ft 177 kts 234°
2026-05-04 18:29 47.24863 11.23943 5632 ft 167 kts 195°
2026-05-04 18:29 47.23718 11.23752 6099 ft 171 kts 169°
2026-05-04 18:29 47.22637 11.24446 6683 ft 170 kts 142°
2026-05-04 18:30 47.21938 11.27692 7512 ft 183 kts 75°
2026-05-04 18:30 47.22498 11.29403 7985 ft 188 kts 65°
2026-05-04 18:30 47.23115 11.31120 8548 ft 192 kts 68°
2026-05-04 18:31 47.23741 11.32878 9135 ft 195 kts 67°
2026-05-04 18:31 47.24375 11.34659 9730 ft 197 kts 66°
2026-05-04 18:31 47.25006 11.36466 10260 ft 200 kts 70°
2026-05-04 18:31 47.25504 11.38417 10617 ft 212 kts 76°
2026-05-04 18:32 47.25980 11.40590 10811 ft 234 kts 76°
2026-05-04 18:32 47.26481 11.42973 11071 ft 254 kts 76°
2026-05-04 18:32 47.27027 11.45580 11355 ft 279 kts 75°
2026-05-04 18:32 47.27629 11.48426 11747 ft 303 kts 75°
2026-05-04 18:33 47.28275 11.51465 12112 ft 327 kts 75°
2026-05-04 18:33 47.28992 11.54817 12438 ft 351 kts 74°
2026-05-04 18:33 47.29753 11.58339 12865 ft 368 kts 74°
2026-05-04 18:33 47.30539 11.61955 12990 ft 376 kts 74°
2026-05-04 18:34 47.31555 11.65632 13007 ft 397 kts 64°
2026-05-04 18:34 47.33054 11.69021 13005 ft 403 kts 51°
2026-05-04 18:34 47.34852 11.72182 13020 ft 400 kts 50°
2026-05-04 18:34 47.36598 11.75241 13015 ft 382 kts 50°
2026-05-04 18:35 47.38352 11.78310 13007 ft 398 kts 50°
2026-05-04 18:35 47.40146 11.81457 13007 ft 402 kts 50°
2026-05-04 18:35 47.41944 11.84613 13006 ft 402 kts 50°
2026-05-04 18:35 47.43742 11.87774 13007 ft 402 kts 50°
2026-05-04 18:36 47.44952 11.89914 12996 ft 402 kts 51°
2026-05-04 18:36 47.46733 11.93093 13009 ft 402 kts 51°
2026-05-04 18:36 47.48508 11.96286 13011 ft 402 kts 51°
2026-05-04 18:36 47.50276 11.99484 13008 ft 402 kts 51°
2026-05-04 18:37 47.52009 12.02624 12994 ft 394 kts 51°
2026-05-04 18:37 47.53703 12.05689 12833 ft 378 kts 51°
2026-05-04 18:37 47.55349 12.08667 12421 ft 371 kts 51°
2026-05-04 18:37 47.56974 12.11607 12063 ft 368 kts 52°
2026-05-04 18:38 47.58592 12.14544 11988 ft 367 kts 51°
2026-05-04 18:38 47.60209 12.17481 12000 ft 368 kts 51°
2026-05-04 18:38 47.61823 12.20414 12001 ft 368 kts 51°
2026-05-04 18:38 47.63438 12.23352 12001 ft 368 kts 51°
2026-05-04 18:39 47.65054 12.26293 12003 ft 367 kts 51°
2026-05-04 18:39 47.66667 12.29231 12005 ft 367 kts 51°
2026-05-04 18:39 47.68280 12.32170 12001 ft 367 kts 51°
2026-05-04 18:39 47.69892 12.35109 12001 ft 367 kts 51°
2026-05-04 18:40 47.71495 12.38038 11689 ft 363 kts 51°
2026-05-04 18:40 47.73079 12.40939 11146 ft 361 kts 52°
2026-05-04 18:40 47.74654 12.43823 10628 ft 358 kts 51°
2026-05-04 18:40 47.76217 12.46687 10211 ft 355 kts 52°
2026-05-04 18:41 47.77757 12.49512 10078 ft 345 kts 52°
2026-05-04 18:41 47.79224 12.52204 10090 ft 325 kts 52°
2026-05-04 18:41 47.80610 12.54752 10101 ft 309 kts 52°
2026-05-04 18:41 47.81944 12.57213 10106 ft 303 kts 52°
2026-05-04 18:42 47.83265 12.59648 10106 ft 302 kts 52°
2026-05-04 18:42 47.84583 12.62073 10101 ft 302 kts 52°
2026-05-04 18:42 47.85904 12.64507 10093 ft 301 kts 52°
2026-05-04 18:42 47.87210 12.66921 9785 ft 298 kts 53°
2026-05-04 18:43 47.88507 12.69324 9369 ft 296 kts 52°
2026-05-04 18:43 47.89788 12.71700 8719 ft 293 kts 52°
2026-05-04 18:43 47.91053 12.74051 8051 ft 290 kts 52°
2026-05-04 18:43 47.92311 12.76387 7376 ft 288 kts 53°
2026-05-04 18:44 47.93561 12.78706 6701 ft 285 kts 52°
2026-05-04 18:44 47.94381 12.80230 6319 ft 283 kts 53°
2026-05-04 18:44 47.96000 12.83238 5445 ft 275 kts 53°
2026-05-04 18:44 47.97187 12.85445 5166 ft 270 kts 54°
2026-05-04 18:45 47.98166 12.87809 5097 ft 268 kts 68°
2026-05-04 18:45 47.98680 12.90467 5101 ft 266 kts 84°
2026-05-04 18:45 47.98694 12.93220 5105 ft 265 kts 98°
2026-05-04 18:45 47.98419 12.95940 5106 ft 265 kts 99°
2026-05-04 18:46 47.97924 12.98570 5106 ft 264 kts 118°
2026-05-04 18:46 47.96834 13.00706 5107 ft 252 kts 140°
2026-05-04 18:46 47.95402 13.01992 5105 ft 230 kts 160°
2026-05-04 18:46 47.93925 13.02520 5101 ft 212 kts 168°
2026-05-04 18:47 47.92484 13.02950 5105 ft 210 kts 167°
2026-05-04 18:47 47.91049 13.03391 5107 ft 211 kts 167°
2026-05-04 18:47 47.89618 13.03831 5116 ft 207 kts 167°
2026-05-04 18:47 47.88265 13.04244 5119 ft 193 kts 167°
2026-05-04 18:48 47.86956 13.04646 5059 ft 194 kts 166°
2026-05-04 18:48 47.85637 13.05054 4735 ft 193 kts 167°
2026-05-04 18:48 47.84357 13.05447 4493 ft 183 kts 166°
2026-05-04 18:48 47.83144 13.05814 4202 ft 171 kts 166°
2026-05-04 18:49 47.82032 13.06135 4022 ft 159 kts 167°
2026-05-04 18:49 47.80995 13.06439 3839 ft 149 kts 166°
2026-05-04 18:49 47.79989 13.06753 3642 ft 145 kts 165°
2026-05-04 18:49 47.79008 13.07036 3469 ft 143 kts 165°
2026-05-04 18:50 47.78031 13.07299 3351 ft 143 kts 168°
2026-05-04 18:50 47.77036 13.07411 3153 ft 146 kts 193°
2026-05-04 18:50 47.76236 13.06522 2891 ft 148 kts 235°
2026-05-04 18:50 47.75770 13.05154 2568 ft 150 kts 253°
2026-05-04 18:51 47.75673 13.03649 2274 ft 147 kts 283°
2026-05-04 18:51 47.76165 13.02407 2048 ft 139 kts 328°
2026-05-04 18:51 47.77040 13.01824 1808 ft 139 kts 341°
2026-05-04 18:51 47.77920 13.01282 1563 ft 138 kts 339°
2026-05-04 18:52 47.78793 13.00735 1422 ft 129 kts 339°
2026-05-04 18:52 47.79490 13.00296 1423 ft 80 kts 336°
2026-05-04 18:52 47.79934 13.00010 1420 ft 61 kts 336°
2026-05-04 18:52 47.80186 12.99851 1421 ft 26 kts 339°
2026-05-04 18:53 47.80276 12.99692 1421 ft 21 kts 259°
2026-05-04 18:53 47.80188 12.99599 1420 ft 15 kts 171°
2026-05-04 18:53 47.80109 12.99648 1420 ft 11 kts 156°
2026-05-04 18:53 47.80044 12.99682 1420 ft 10 kts 159°
2026-05-04 18:54 47.79965 12.99729 1420 ft 20 kts 159°
2026-05-04 18:54 47.79784 12.99842 1420 ft 32 kts 157°
2026-05-04 18:54 47.79576 12.99973 1420 ft 33 kts 157°
2026-05-04 18:54 47.79402 13.00083 1422 ft 13 kts 163°
2026-05-04 18:55 47.79340 13.00009 1420 ft 12 kts 246°
2026-05-04 18:55 47.79252 12.99848 1420 ft 9 kts 279°
2026-05-04 18:55 47.79256 12.99830 1420 ft 0 kts 288°